Time;durP1;ratioP1;P1;durP2;ratioP2;P2;SDS_P1;SDS_P2;PMS_P1;PMS_P2;Temp;Humidity;BMP_temperature;BMP_pressure;BME280_temperature;BME280_humidity;BME280_pressure;Samples;Min_cycle;Max_cycle;Signal;HPM_P1;HPM_P2
2021/06/01 00:00:15;;;;;;;5.75;2.58;;;15.50;99.90;;;;;;4992826;28;20193;-83
2021/06/01 00:02:47;;;;;;;4.10;2.45;;;15.40;99.90;;;;;;4977085;28;20213;-83
2021/06/01 00:05:14;;;;;;;2.25;1.88;;;15.40;99.90;;;;;;5002338;28;20217;-83
2021/06/01 00:07:42;;;;;;;6.82;2.65;;;15.30;99.90;;;;;;5004189;28;20664;-83
2021/06/01 00:10:11;;;;;;;2.63;2.20;;;15.20;99.90;;;;;;5000497;28;20205;-82
2021/06/01 00:12:38;;;;;;;2.55;2.22;;;15.20;99.90;;;;;;4987372;28;20224;-82
2021/06/01 00:15:06;;;;;;;3.08;2.58;;;15.10;99.90;;;;;;4977442;28;20683;-83
2021/06/01 00:17:33;;;;;;;2.72;2.50;;;15.00;99.90;;;;;;5002655;28;20198;-83
2021/06/01 00:20:00;;;;;;;4.05;2.35;;;15.00;99.90;;;;;;4991367;28;20198;-83
2021/06/01 00:22:26;;;;;;;2.97;2.45;;;14.70;99.90;;;;;;4991629;28;20730;-82
2021/06/01 00:24:57;;;;;;;12.07;3.33;;;14.60;99.90;;;;;;5014874;28;20192;-83
2021/06/01 00:27:28;;;;;;;3.88;2.17;;;14.80;99.90;;;;;;5004739;28;20205;-83
2021/06/01 00:29:55;;;;;;;3.53;2.92;;;14.90;99.90;;;;;;4992322;28;20194;-83
2021/06/01 00:32:21;;;;;;;3.83;2.90;;;14.90;99.90;;;;;;4966320;28;20221;-82
2021/06/01 00:34:48;;;;;;;3.20;2.25;;;14.90;99.90;;;;;;4980880;28;20234;-83
2021/06/01 00:37:15;;;;;;;3.08;2.67;;;14.90;99.90;;;;;;4989296;28;20201;-83
2021/06/01 00:39:42;;;;;;;3.63;2.75;;;14.70;99.90;;;;;;5001041;28;20287;-82
2021/06/01 00:42:11;;;;;;;4.18;3.20;;;14.70;99.90;;;;;;4999290;28;20223;-84
2021/06/01 00:44:41;;;;;;;3.22;2.58;;;14.60;99.90;;;;;;4996515;28;20463;-81
2021/06/01 00:47:08;;;;;;;2.90;2.40;;;14.40;99.90;;;;;;5000609;28;20204;-83
2021/06/01 00:49:42;;;;;;;3.47;3.17;;;14.30;99.90;;;;;;4999304;28;20210;-83
2021/06/01 00:52:15;;;;;;;3.08;2.75;;;14.30;99.90;;;;;;4992377;28;20236;-83
2021/06/01 00:54:50;;;;;;;6.28;3.63;;;14.00;99.90;;;;;;4979004;28;20696;-82
2021/06/01 00:57:22;;;;;;;3.17;2.88;;;13.60;99.90;;;;;;5000980;28;20219;-82
2021/06/01 00:59:49;;;;;;;5.90;2.70;;;13.50;99.90;;;;;;5001602;28;20676;-82
2021/06/01 01:02:15;;;;;;;3.15;2.80;;;13.60;99.90;;;;;;5000161;28;20232;-82
2021/06/01 01:04:49;;;;;;;2.60;2.40;;;13.30;99.90;;;;;;4987729;28;20194;-82
2021/06/01 01:07:33;;;;;;;4.32;2.80;;;13.30;99.90;;;;;;4997347;28;20273;-82
2021/06/01 01:10:01;;;;;;;9.48;2.85;;;13.40;99.90;;;;;;5000165;28;20702;-82
2021/06/01 01:12:45;;;;;;;3.60;2.42;;;13.30;99.90;;;;;;5000386;28;20712;-82
2021/06/01 01:15:12;;;;;;;5.03;3.30;;;13.00;99.90;;;;;;4999818;28;20715;-81
2021/06/01 01:17:45;;;;;;;4.18;3.28;;;12.90;99.90;;;;;;4980372;28;20202;-82
2021/06/01 01:20:29;;;;;;;7.32;3.20;;;12.90;99.90;;;;;;4977737;28;20276;-81
2021/06/01 01:22:57;;;;;;;4.38;3.08;;;12.80;99.90;;;;;;4978353;28;20221;-82
2021/06/01 01:25:40;;;;;;;3.38;3.08;;;12.80;99.90;;;;;;4978241;28;20198;-80
2021/06/01 01:28:29;;;;;;;3.65;3.15;;;12.60;99.90;;;;;;4983107;28;20200;-82
2021/06/01 01:31:11;;;;;;;3.65;3.10;;;12.50;99.90;;;;;;4977804;28;20226;-81
2021/06/01 01:33:42;;;;;;;3.85;3.42;;;12.50;99.90;;;;;;4979817;28;20213;-82
2021/06/01 01:36:25;;;;;;;4.10;3.70;;;12.30;99.90;;;;;;4997479;28;20212;-82
2021/06/01 01:38:53;;;;;;;4.30;3.42;;;12.10;99.90;;;;;;4981217;28;20564;-82
2021/06/01 01:44:19;;;;;;;4.93;3.00;;;11.80;99.90;;;;;;4996009;28;20750;-83
2021/06/01 01:47:04;;;;;;;3.30;3.00;;;11.80;99.90;;;;;;4999668;28;20289;-82
2021/06/01 01:49:35;;;;;;;4.05;3.03;;;12.20;99.90;;;;;;5000009;28;20288;-82
2021/06/01 01:52:02;;;;;;;5.22;3.50;;;12.50;99.90;;;;;;4982701;28;20221;-82
2021/06/01 01:54:34;;;;;;;8.82;3.75;;;12.70;99.90;;;;;;4981937;28;20244;-82
2021/06/01 01:57:09;;;;;;;4.32;3.95;;;12.80;99.90;;;;;;4981853;28;20260;-83
2021/06/01 01:59:38;;;;;;;4.63;3.35;;;12.60;99.90;;;;;;4963817;28;20233;-80
2021/06/01 02:02:17;;;;;;;3.38;3.08;;;12.40;99.90;;;;;;4981705;28;20298;-82
2021/06/01 02:04:49;;;;;;;3.58;3.28;;;12.40;99.90;;;;;;4963524;28;20194;-81
2021/06/01 02:07:16;;;;;;;4.15;3.08;;;12.40;99.90;;;;;;4979186;28;20229;-82
2021/06/01 02:09:43;;;;;;;3.75;3.45;;;12.60;99.90;;;;;;4978433;28;20345;-82
2021/06/01 02:12:12;;;;;;;3.55;2.83;;;12.60;99.90;;;;;;4978876;28;20220;-82
2021/06/01 02:14:39;;;;;;;5.20;3.28;;;12.50;99.90;;;;;;4978973;28;20217;-82
2021/06/01 02:17:05;;;;;;;5.10;2.65;;;12.50;99.90;;;;;;4994518;28;20201;-82
2021/06/01 02:19:33;;;;;;;3.25;2.92;;;12.80;99.90;;;;;;4984950;28;20277;-83
2021/06/01 02:22:19;;;;;;;2.83;2.63;;;12.90;99.90;;;;;;4978707;28;20277;-81
2021/06/01 02:24:49;;;;;;;3.22;2.97;;;12.90;99.90;;;;;;4978792;28;20213;-81
2021/06/01 02:27:20;;;;;;;3.17;2.88;;;13.10;99.90;;;;;;4961762;28;20198;-82
2021/06/01 02:30:00;;;;;;;5.53;3.05;;;12.70;99.90;;;;;;4981284;28;20206;-82
2021/06/01 02:32:34;;;;;;;3.13;2.70;;;12.60;99.90;;;;;;4962627;28;20229;-82
2021/06/01 02:35:06;;;;;;;2.90;2.70;;;12.60;99.90;;;;;;4982963;28;20233;-82
2021/06/01 02:37:39;;;;;;;4.88;3.00;;;12.50;99.90;;;;;;4982189;28;20201;-83
2021/06/01 02:40:10;;;;;;;4.80;2.83;;;12.30;99.90;;;;;;4983471;28;20204;-83
2021/06/01 02:42:39;;;;;;;4.03;2.58;;;12.40;99.90;;;;;;4982293;28;20214;-81
2021/06/01 02:45:08;;;;;;;3.70;2.70;;;12.60;99.90;;;;;;4983710;28;20621;-82
2021/06/01 02:47:51;;;;;;;3.65;2.58;;;12.60;99.90;;;;;;5001706;28;20224;-84
2021/06/01 02:50:19;;;;;;;2.67;2.47;;;12.70;99.90;;;;;;5012416;28;20204;-82
2021/06/01 02:52:54;;;;;;;4.00;3.10;;;12.70;99.90;;;;;;5024213;28;20671;-81
2021/06/01 02:55:33;;;;;;;2.55;2.35;;;12.70;99.90;;;;;;5011432;28;20221;-82
2021/06/01 02:58:00;;;;;;;3.10;2.60;;;12.70;99.90;;;;;;5002234;28;20205;-82
2021/06/01 03:00:28;;;;;;;3.95;2.45;;;12.70;99.90;;;;;;4985379;28;20266;-80
2021/06/01 03:02:55;;;;;;;3.75;2.50;;;12.70;99.90;;;;;;4985296;28;20221;-80
2021/06/01 03:05:29;;;;;;;3.15;2.70;;;12.70;99.90;;;;;;4980267;28;20202;-80
2021/06/01 03:08:09;;;;;;;2.60;2.40;;;12.80;99.90;;;;;;4982374;28;20669;-81
2021/06/01 03:10:36;;;;;;;3.03;2.75;;;12.90;99.90;;;;;;4963009;28;20696;-80
2021/06/01 03:13:03;;;;;;;3.35;3.08;;;12.80;99.90;;;;;;4983709;28;20202;-81
2021/06/01 03:15:30;;;;;;;4.60;2.70;;;12.80;99.90;;;;;;4979734;28;20288;-81
2021/06/01 03:17:57;;;;;;;3.22;2.33;;;12.70;99.90;;;;;;4980660;28;20205;-81
2021/06/01 03:20:24;;;;;;;3.53;2.95;;;12.50;99.90;;;;;;4992090;28;20190;-79
2021/06/01 03:22:51;;;;;;;5.68;3.17;;;12.30;99.90;;;;;;4980122;28;20543;-80
2021/06/01 03:25:21;;;;;;;4.93;3.05;;;12.20;99.90;;;;;;4981091;28;20197;-81
2021/06/01 03:27:48;;;;;;;5.03;3.05;;;12.30;99.90;;;;;;4981689;28;20202;-81
2021/06/01 03:30:17;;;;;;;4.78;3.33;;;12.40;99.90;;;;;;4994350;28;20201;-81
2021/06/01 03:32:43;;;;;;;2.92;2.70;;;12.40;99.90;;;;;;5000690;28;20300;-80
2021/06/01 03:35:11;;;;;;;4.63;2.97;;;12.60;99.90;;;;;;4999147;28;20296;-81
2021/06/01 03:37:38;;;;;;;3.00;2.80;;;12.50;99.90;;;;;;4999462;28;20189;-81
2021/06/01 03:40:06;;;;;;;3.92;3.13;;;12.60;99.90;;;;;;4988049;28;20611;-80
2021/06/01 03:42:35;;;;;;;4.30;3.70;;;12.60;99.90;;;;;;4979255;28;20592;-82
2021/06/01 03:45:03;;;;;;;3.60;3.30;;;12.60;99.90;;;;;;4980071;28;20378;-81
2021/06/01 03:47:29;;;;;;;2.97;2.78;;;12.50;99.90;;;;;;4980777;28;20665;-81
2021/06/01 03:49:57;;;;;;;4.50;4.10;;;12.40;99.90;;;;;;4981400;28;20221;-80
2021/06/01 03:52:24;;;;;;;3.60;3.25;;;12.30;99.90;;;;;;4999051;28;20228;-82
2021/06/01 03:54:51;;;;;;;4.55;3.58;;;12.30;99.90;;;;;;4983830;28;20218;-81
2021/06/01 03:57:18;;;;;;;4.50;3.90;;;12.20;99.90;;;;;;4969624;28;20235;-81
2021/06/01 03:59:46;;;;;;;4.60;3.58;;;12.20;99.90;;;;;;4982406;28;20292;-81
2021/06/01 04:02:13;;;;;;;5.43;3.88;;;12.30;99.90;;;;;;4989770;28;20658;-81
2021/06/01 04:04:40;;;;;;;4.95;3.70;;;12.40;99.90;;;;;;4980214;28;20603;-81
2021/06/01 04:07:09;;;;;;;4.88;3.78;;;12.40;99.90;;;;;;4985057;28;20653;-82
2021/06/01 04:09:36;;;;;;;7.43;4.63;;;12.60;99.90;;;;;;4978804;28;20213;-80
2021/06/01 04:12:04;;;;;;;5.95;3.85;;;12.60;99.90;;;;;;4962535;28;20222;-81
2021/06/01 04:14:31;;;;;;;4.60;3.13;;;12.50;99.90;;;;;;4979010;28;20317;-80
2021/06/01 04:16:59;;;;;;;3.20;3.00;;;12.40;99.90;;;;;;4979215;28;20229;-82
2021/06/01 04:19:26;;;;;;;4.78;3.47;;;12.50;99.90;;;;;;4978491;28;20201;-81
2021/06/01 04:21:53;;;;;;;6.55;3.95;;;12.50;99.90;;;;;;4993836;28;20295;-81
2021/06/01 04:24:21;;;;;;;4.78;4.38;;;12.60;99.90;;;;;;4998273;28;20204;-80
2021/06/01 04:26:47;;;;;;;4.93;3.95;;;12.50;99.90;;;;;;4999368;28;20279;-79
2021/06/01 04:29:14;;;;;;;4.13;3.70;;;12.50;99.90;;;;;;4998006;28;20205;-81
2021/06/01 04:31:41;;;;;;;5.30;4.07;;;12.40;99.90;;;;;;4999866;28;20227;-80
2021/06/01 04:34:09;;;;;;;4.43;3.70;;;12.30;99.90;;;;;;4998685;28;20220;-81
2021/06/01 04:36:37;;;;;;;6.80;4.40;;;12.10;99.90;;;;;;4977020;28;20297;-81
2021/06/01 04:39:26;;;;;;;5.13;3.85;;;11.80;99.90;;;;;;4997286;28;20271;-82
2021/06/01 04:41:53;;;;;;;4.80;4.50;;;11.80;99.90;;;;;;4980685;28;20224;-80
2021/06/01 04:44:20;;;;;;;5.55;4.47;;;12.00;99.90;;;;;;4984063;28;20584;-80
2021/06/01 04:46:46;;;;;;;7.13;4.68;;;12.20;99.90;;;;;;4962134;28;20213;-81
2021/06/01 04:49:17;;;;;;;7.97;3.72;;;12.20;99.90;;;;;;4977243;28;20611;-81
2021/06/01 04:51:44;;;;;;;5.50;4.70;;;12.20;99.90;;;;;;4977883;28;20225;-80
2021/06/01 04:54:11;;;;;;;5.35;4.85;;;12.10;99.90;;;;;;4978457;28;20224;-81
2021/06/01 04:56:38;;;;;;;5.38;4.45;;;12.20;99.90;;;;;;4978223;28;20275;-82
2021/06/01 04:59:04;;;;;;;4.38;3.28;;;12.10;99.90;;;;;;4980655;28;20281;-80
2021/06/01 05:01:31;;;;;;;4.53;4.10;;;12.20;99.90;;;;;;4962895;28;20218;-81
2021/06/01 05:03:58;;;;;;;3.78;3.47;;;12.50;99.90;;;;;;4962667;28;20198;-81
2021/06/01 05:06:26;;;;;;;11.77;7.63;;;12.50;99.90;;;;;;4978286;28;20217;-80
2021/06/01 05:08:53;;;;;;;3.63;3.30;;;12.70;99.90;;;;;;4963017;28;20209;-81
2021/06/01 05:11:20;;;;;;;5.97;3.47;;;12.90;99.90;;;;;;4997574;28;20228;-80
2021/06/01 05:13:47;;;;;;;4.60;3.47;;;13.00;99.90;;;;;;4997853;28;20201;-81
2021/06/01 05:16:15;;;;;;;3.80;2.88;;;12.90;99.90;;;;;;4998161;28;20236;-83
2021/06/01 05:18:42;;;;;;;4.18;3.55;;;12.90;99.90;;;;;;4997415;28;20667;-81
2021/06/01 05:21:12;;;;;;;5.40;3.42;;;12.80;99.90;;;;;;4987132;28;20210;-81
2021/06/01 05:24:10;;;;;;;5.55;3.67;;;12.90;99.90;;;;;;4984883;28;20205;-81
2021/06/01 05:26:56;;;;;;;8.23;4.55;;;12.90;99.90;;;;;;4976609;28;20679;-83
2021/06/01 05:29:23;;;;;;;4.28;3.88;;;13.10;99.90;;;;;;4997278;28;20228;-80
2021/06/01 05:36:15;;;;;;;3.70;3.40;;;13.20;99.90;;;;;;4997055;28;20245;-80
2021/06/01 05:39:08;;;;;;;16.45;12.13;;;13.50;99.90;;;;;;4947367;28;20202;-80
2021/06/01 05:42:18;;;;;;;5.57;4.65;;;13.60;99.90;;;;;;4922124;29;20782;-82
2021/06/01 05:45:10;;;;;;;5.15;3.90;;;13.80;99.90;;;;;;4915507;29;20261;-81
2021/06/01 05:47:40;;;;;;;3.90;3.60;;;14.00;99.90;;;;;;4993930;28;20209;-81
2021/06/01 05:50:19;;;;;;;5.35;4.00;;;14.10;99.90;;;;;;4989544;28;20198;-81
2021/06/01 05:53:01;;;;;;;3.47;3.17;;;14.10;99.90;;;;;;4983063;28;20331;-80
2021/06/01 05:55:32;;;;;;;7.00;5.05;;;14.10;99.90;;;;;;4991369;28;20218;-81
2021/06/01 05:58:05;;;;;;;6.22;5.63;;;14.30;99.90;;;;;;4986786;28;20205;-80
2021/06/01 06:00:40;;;;;;;4.30;3.90;;;14.50;99.90;;;;;;4993958;28;20221;-81
2021/06/01 06:03:16;;;;;;;4.25;3.95;;;14.70;99.90;;;;;;4984761;28;20193;-81
2021/06/01 06:05:49;;;;;;;3.63;2.88;;;14.70;99.90;;;;;;4995425;28;20638;-81
2021/06/01 06:09:05;;;;;;;5.57;3.78;;;14.80;99.90;;;;;;4993265;28;20189;-80
2021/06/01 06:12:03;;;;;;;4.07;3.60;;;14.90;99.90;;;;;;5002511;28;20762;-80
2021/06/01 06:19:42;;;;;;;6.00;3.92;;;15.20;99.90;;;;;;4995766;28;20244;-81
2021/06/01 06:26:19;;;;;;;4.82;3.75;;;15.60;99.90;;;;;;4895713;29;20193;-81
2021/06/01 06:28:46;;;;;;;3.92;3.58;;;16.10;99.90;;;;;;4894195;28;20473;-81
2021/06/01 06:31:13;;;;;;;5.20;4.63;;;16.00;99.90;;;;;;4992854;28;20259;-81
2021/06/01 06:33:40;;;;;;;5.15;4.72;;;16.10;99.90;;;;;;4998574;28;20209;-82
2021/06/01 06:36:09;;;;;;;5.10;3.40;;;16.30;99.90;;;;;;4998765;28;20229;-83
2021/06/01 06:38:58;;;;;;;8.73;4.63;;;16.40;99.90;;;;;;4999034;28;20214;-83
2021/06/01 06:41:27;;;;;;;4.43;3.65;;;16.60;99.90;;;;;;5002997;28;20217;-83
2021/06/01 06:43:54;;;;;;;3.85;3.47;;;16.70;99.90;;;;;;5017039;28;20190;-83
2021/06/01 06:46:25;;;;;;;7.35;3.33;;;16.80;99.90;;;;;;4990306;28;20212;-82
2021/06/01 06:48:53;;;;;;;3.60;2.67;;;16.90;99.90;;;;;;4998140;28;20197;-83
2021/06/01 06:52:01;;;;;;;5.47;3.70;;;16.90;99.90;;;;;;4999957;28;20240;-83
2021/06/01 06:55:01;;;;;;;6.03;3.20;;;17.20;99.90;;;;;;4977775;28;20249;-82
2021/06/01 06:57:57;;;;;;;4.18;2.75;;;17.40;99.90;;;;;;4981130;28;20198;-81
2021/06/01 07:00:49;;;;;;;6.15;3.40;;;17.80;99.90;;;;;;4976114;28;20673;-83
2021/06/01 07:03:19;;;;;;;6.68;3.58;;;18.10;99.90;;;;;;4975788;28;20244;-83
2021/06/01 07:06:15;;;;;;;3.80;3.40;;;18.10;99.90;;;;;;4962861;28;20217;-82
2021/06/01 07:09:12;;;;;;;4.70;3.03;;;18.20;99.90;;;;;;4911488;29;20241;-82
2021/06/01 07:11:52;;;;;;;5.57;3.22;;;18.50;99.90;;;;;;4911218;29;20298;-81
2021/06/01 07:14:47;;;;;;;4.93;3.20;;;18.70;99.90;;;;;;4918301;29;20212;-82
2021/06/01 07:17:23;;;;;;;4.78;3.10;;;18.60;99.90;;;;;;4925355;28;20202;-81
2021/06/01 07:20:17;;;;;;;5.28;3.20;;;18.70;99.90;;;;;;4990573;28;20194;-83
2021/06/01 07:22:43;;;;;;;4.35;3.15;;;19.00;99.90;;;;;;5018625;28;20801;-38
2021/06/01 07:25:12;;;;;;;5.10;3.47;;;19.00;99.90;;;;;;5031421;28;20689;-37
2021/06/01 07:27:39;;;;;;;4.60;3.28;;;19.30;99.90;;;;;;5030746;28;20670;-38
2021/06/01 07:30:08;;;;;;;3.13;2.83;;;19.50;99.90;;;;;;5006121;28;20254;-37
2021/06/01 07:32:35;;;;;;;5.32;3.53;;;19.50;99.90;;;;;;5022127;28;20196;-38
2021/06/01 07:35:02;;;;;;;4.97;3.10;;;19.60;99.90;;;;;;5019516;28;20796;-36
2021/06/01 07:37:29;;;;;;;4.13;3.10;;;19.70;99.90;;;;;;4993632;23;20237;-35
2021/06/01 07:39:56;;;;;;;3.35;2.88;;;19.70;99.90;;;;;;4972599;28;20214;-34
2021/06/01 07:42:24;;;;;;;3.90;3.53;;;19.80;99.90;;;;;;4972741;28;20202;-34
2021/06/01 07:44:51;;;;;;;4.55;2.80;;;19.80;99.90;;;;;;4973729;28;20261;-35
2021/06/01 07:47:17;;;;;;;5.35;3.95;;;19.90;99.90;;;;;;4963623;28;20234;-35
2021/06/01 07:49:44;;;;;;;4.60;3.00;;;20.10;99.90;;;;;;4965555;28;20285;-35
2021/06/01 07:52:11;;;;;;;3.03;2.72;;;20.10;99.90;;;;;;4973752;28;20288;-34
2021/06/01 07:54:38;;;;;;;2.72;2.53;;;20.00;99.90;;;;;;4944044;29;20222;-34
2021/06/01 07:57:07;;;;;;;3.75;3.35;;;20.00;99.90;;;;;;4966124;28;20214;-35
2021/06/01 07:59:35;;;;;;;7.15;2.80;;;20.00;99.90;;;;;;4961521;28;20719;-34
2021/06/01 08:02:02;;;;;;;3.63;2.72;;;20.20;99.90;;;;;;4959290;28;20292;-34
2021/06/01 08:04:29;;;;;;;4.30;3.10;;;20.10;99.90;;;;;;4963811;28;20273;-36
2021/06/01 08:07:00;;;;;;;3.63;2.78;;;20.10;99.90;;;;;;4969797;28;20723;-34
2021/06/01 08:09:27;;;;;;;4.45;3.25;;;20.30;99.90;;;;;;4968377;28;20260;-35
2021/06/01 08:11:53;;;;;;;4.47;3.33;;;20.40;99.90;;;;;;4954636;29;20261;-35
2021/06/01 08:14:20;;;;;;;6.00;2.85;;;20.70;99.90;;;;;;4961155;28;20232;-35
2021/06/01 08:16:48;;;;;;;2.83;2.63;;;20.70;99.90;;;;;;4960211;28;20573;-34
2021/06/01 08:19:17;;;;;;;5.90;3.80;;;20.70;99.90;;;;;;4967964;28;20615;-34
2021/06/01 08:21:52;;;;;;;2.92;2.00;;;20.80;99.90;;;;;;4963954;28;20198;-35
2021/06/01 08:24:19;;;;;;;2.58;2.33;;;20.90;99.90;;;;;;4967594;28;20198;-35
2021/06/01 08:26:46;;;;;;;4.60;2.63;;;21.00;99.90;;;;;;4963103;28;20226;-35
2021/06/01 08:29:13;;;;;;;3.45;2.47;;;21.20;99.90;;;;;;4962822;28;20698;-34
2021/06/01 08:31:40;;;;;;;5.35;2.45;;;21.30;99.90;;;;;;4966213;28;20202;-34
2021/06/01 08:34:08;;;;;;;3.35;2.42;;;21.20;99.90;;;;;;4963113;28;20268;-35
2021/06/01 08:36:36;;;;;;;2.58;2.28;;;21.30;99.90;;;;;;4962664;28;20316;-34
2021/06/01 08:39:04;;;;;;;5.20;2.42;;;21.40;99.90;;;;;;4969938;28;20198;-35
2021/06/01 08:41:31;;;;;;;4.65;3.35;;;21.60;99.90;;;;;;4972501;28;20210;-35
2021/06/01 08:44:00;;;;;;;4.22;2.75;;;21.70;99.90;;;;;;4972258;28;20229;-35
2021/06/01 08:46:27;;;;;;;5.32;2.50;;;21.90;99.90;;;;;;4972940;28;20690;-34
2021/06/01 08:48:55;;;;;;;5.20;2.92;;;22.10;99.90;;;;;;4972761;28;20202;-35
2021/06/01 08:51:24;;;;;;;3.53;3.17;;;22.40;99.90;;;;;;4963723;28;20230;-35
2021/06/01 08:53:52;;;;;;;4.90;2.78;;;22.60;99.90;;;;;;4960908;28;20191;-35
2021/06/01 08:56:20;;;;;;;9.25;3.67;;;22.50;99.90;;;;;;4966490;28;20218;-35
2021/06/01 08:58:49;;;;;;;3.92;2.90;;;22.80;99.90;;;;;;4964286;28;20222;-35
2021/06/01 09:01:17;;;;;;;6.00;3.10;;;22.80;99.90;;;;;;4965085;28;20209;-35
2021/06/01 09:03:46;;;;;;;2.60;2.35;;;22.90;99.90;;;;;;4945079;28;20194;-35
2021/06/01 09:06:19;;;;;;;3.92;2.95;;;22.90;99.90;;;;;;4960936;28;20560;-35
2021/06/01 09:08:58;;;;;;;3.50;2.50;;;23.00;99.90;;;;;;4970553;28;20526;-34
2021/06/01 09:11:37;;;;;;;5.57;3.08;;;23.00;99.90;;;;;;4972125;28;20210;-34
2021/06/01 09:22:32;;;;;;;5.88;2.88;;;22.90;99.90;;;;;;4961023;28;20202;-35
2021/06/01 09:25:05;;;;;;;2.88;2.60;;;23.10;99.90;;;;;;4953039;29;20584;-35
2021/06/01 09:27:43;;;;;;;5.10;3.05;;;23.20;99.90;;;;;;4954415;28;20258;-35
2021/06/01 09:30:11;;;;;;;5.75;2.85;;;23.40;99.90;;;;;;4966820;28;20214;-35
2021/06/01 09:32:44;;;;;;;5.50;3.22;;;23.50;99.90;;;;;;4966873;28;20291;-35
2021/06/01 09:35:11;;;;;;;7.93;3.85;;;23.50;99.90;;;;;;4972532;28;20222;-35
2021/06/01 09:37:38;;;;;;;4.45;3.13;;;23.40;99.90;;;;;;4970689;28;20650;-35
2021/06/01 09:40:09;;;;;;;5.65;3.25;;;23.50;99.90;;;;;;4965767;28;20199;-35
2021/06/01 09:42:41;;;;;;;3.92;3.20;;;23.70;99.90;;;;;;4964225;28;20218;-35
2021/06/01 09:45:11;;;;;;;4.60;2.88;;;23.70;99.90;;;;;;4961989;28;20568;-35
2021/06/01 09:47:50;;;;;;;4.70;3.17;;;23.90;99.90;;;;;;4971436;28;20289;-38
2021/06/01 09:50:27;;;;;;;3.20;3.00;;;24.00;99.90;;;;;;4966360;28;20199;-35
2021/06/01 09:52:57;;;;;;;3.72;3.42;;;24.20;99.90;;;;;;4952921;28;20268;-35
2021/06/01 09:55:30;;;;;;;5.13;3.42;;;24.30;99.90;;;;;;4963503;28;20322;-35
2021/06/01 09:57:58;;;;;;;4.00;3.17;;;24.30;99.90;;;;;;4936306;29;20207;-35
2021/06/01 10:00:26;;;;;;;3.85;3.55;;;24.10;99.90;;;;;;4968701;28;20229;-35
2021/06/01 10:02:56;;;;;;;5.93;3.78;;;24.30;99.90;;;;;;4965246;28;20735;-35
2021/06/01 10:05:24;;;;;;;4.20;3.75;;;24.40;99.90;;;;;;4952906;28;20202;-35
2021/06/01 10:07:52;;;;;;;5.07;3.95;;;24.30;99.90;;;;;;4960673;28;20257;-35
2021/06/01 10:10:22;;;;;;;5.25;4.30;;;24.50;99.90;;;;;;4964922;28;20661;-35
2021/06/01 10:12:52;;;;;;;4.88;2.85;;;24.50;99.90;;;;;;4962954;28;20200;-35
2021/06/01 10:15:21;;;;;;;5.88;3.50;;;24.40;99.90;;;;;;4967406;28;20222;-35
2021/06/01 10:17:49;;;;;;;4.50;3.05;;;24.50;99.90;;;;;;4963881;28;20624;-35
2021/06/01 10:20:18;;;;;;;5.10;4.07;;;24.90;99.90;;;;;;4962367;28;20202;-35
2021/06/01 10:22:46;;;;;;;5.60;4.00;;;24.90;99.90;;;;;;4965535;28;20190;-35
2021/06/01 10:25:13;;;;;;;4.00;3.25;;;24.70;99.90;;;;;;4965420;28;20220;-35
2021/06/01 10:27:40;;;;;;;4.97;3.50;;;24.90;99.90;;;;;;4966500;28;20201;-35
2021/06/01 10:30:10;;;;;;;4.88;3.85;;;25.00;99.90;;;;;;4960979;28;20617;-35
2021/06/01 10:32:40;;;;;;;6.47;4.20;;;25.10;99.90;;;;;;4966227;28;20198;-35
2021/06/01 10:35:10;;;;;;;5.75;3.30;;;25.30;99.90;;;;;;4971678;28;20221;-36
2021/06/01 10:52:11;;;;;;;4.75;3.58;;;25.60;99.90;;;;;;4957607;28;20190;-36
2021/06/01 10:54:59;;;;;;;8.15;4.00;;;25.60;99.90;;;;;;4970997;28;20202;-36
2021/06/01 10:57:54;;;;;;;5.22;3.80;;;25.70;99.90;;;;;;4965042;28;20603;-35
2021/06/01 11:03:09;;;;;;;4.47;3.75;;;25.70;99.90;;;;;;4957928;28;20198;-36
2021/06/01 11:06:03;;;;;;;3.78;3.30;;;25.70;99.90;;;;;;4971398;28;20210;-35
2021/06/01 11:08:34;;;;;;;6.57;3.83;;;25.80;99.90;;;;;;4960115;28;20230;-35
2021/06/01 11:11:34;;;;;;;8.85;3.70;;;25.80;99.90;;;;;;4964453;28;20210;-35
2021/06/01 11:14:03;;;;;;;3.95;2.90;;;25.90;99.90;;;;;;4956459;28;20198;-36
2021/06/01 11:16:52;;;;;;;5.45;4.95;;;25.90;99.90;;;;;;4967069;28;20250;-36
2021/06/01 11:19:22;;;;;;;4.60;3.78;;;25.70;99.90;;;;;;4970469;28;20210;-35
2021/06/01 11:21:57;;;;;;;4.55;4.05;;;25.70;99.90;;;;;;4968010;28;20584;-36
2021/06/01 11:35:59;;;;;;;4.20;3.15;;;26.10;99.90;;;;;;4956424;28;20226;-36
2021/06/01 11:38:34;;;;;;;7.45;4.15;;;26.20;99.90;;;;;;4971292;28;20237;-35
2021/06/01 11:44:14;;;;;;;4.15;3.28;;;25.70;99.90;;;;;;4957883;28;20269;-35
2021/06/01 11:46:44;;;;;;;5.40;3.38;;;26.10;99.90;;;;;;4965918;28;20268;-36
2021/06/01 11:52:02;;;;;;;4.88;4.00;;;26.60;99.90;;;;;;4927371;28;20220;-36
2021/06/01 11:54:29;;;;;;;5.30;4.25;;;26.80;99.90;;;;;;4960436;28;20210;-35
2021/06/01 11:57:10;;;;;;;4.93;3.33;;;26.80;99.90;;;;;;4970444;28;20668;-36
2021/06/01 12:02:44;;;;;;;8.52;3.40;;;26.20;99.90;;;;;;4969182;28;20202;-36
2021/06/01 12:11:12;;;;;;;4.47;3.28;;;26.60;99.90;;;;;;4969217;28;20238;-36
2021/06/01 12:11:39;;;;;;;7.50;4.50;;;27.20;99.90;;;;;;4968104;28;20202;-36
2021/06/01 12:14:23;;;;;;;3.72;3.42;;;27.50;99.90;;;;;;4957745;28;20961;-36
2021/06/01 12:19:24;;;;;;;5.57;3.67;;;27.70;99.90;;;;;;4965997;28;20253;-36
2021/06/01 12:21:51;;;;;;;4.18;3.15;;;27.50;99.90;;;;;;4970317;28;20253;-35
2021/06/01 12:24:22;;;;;;;4.68;3.38;;;27.60;99.90;;;;;;4971519;28;20663;-36
2021/06/01 12:26:58;;;;;;;3.90;3.60;;;27.70;99.90;;;;;;4973040;28;20218;-36
2021/06/01 12:32:14;;;;;;;5.93;3.55;;;28.30;99.90;;;;;;4938393;28;20201;-36
2021/06/01 12:43:17;;;;;;;4.35;3.10;;;28.70;99.90;;;;;;4965780;28;20202;-36
2021/06/01 12:45:53;;;;;;;4.55;3.17;;;29.00;99.90;;;;;;4955626;28;20262;-36
2021/06/01 13:09:09;;;;;;;4.13;3.70;;;28.70;99.90;;;;;;4936925;28;20772;-36
2021/06/01 13:14:39;;;;;;;4.25;3.85;;;29.20;99.90;;;;;;4962470;28;20298;-35
2021/06/01 13:20:17;;;;;;;5.78;4.13;;;29.80;99.90;;;;;;4910573;28;20207;-36
2021/06/01 13:22:57;;;;;;;3.65;3.33;;;30.10;99.90;;;;;;4963816;28;20198;-36
2021/06/01 13:36:56;;;;;;;6.32;5.72;;;30.80;99.90;;;;;;4960181;28;20222;-39
2021/06/01 13:39:37;;;;;;;3.85;3.30;;;31.00;99.90;;;;;;4953692;28;20763;-38
2021/06/01 13:47:52;;;;;;;4.13;3.60;;;31.90;99.90;;;;;;4958748;28;20198;-38
2021/06/01 13:50:26;;;;;;;5.60;4.30;;;31.90;99.90;;;;;;4956561;28;20513;-38
2021/06/01 13:55:06;;;;;;;4.60;4.18;;;32.30;99.90;;;;;;4954551;28;20319;-38
2021/06/01 13:55:58;;;;;;;4.90;3.08;;;32.80;99.90;;;;;;4960680;28;20642;-38
2021/06/01 13:58:39;;;;;;;3.53;3.17;;;32.90;99.90;;;;;;4960960;28;20581;-38
2021/06/01 14:01:11;;;;;;;5.38;4.75;;;33.10;98.50;;;;;;4964809;28;20198;-38
2021/06/01 14:09:37;;;;;;;8.45;5.43;;;33.10;99.20;;;;;;4952122;28;20209;-38
2021/06/01 14:20:45;;;;;;;10.93;6.85;;;33.60;97.00;;;;;;4961365;28;20198;-39
2021/06/01 14:32:08;;;;;;;6.60;4.70;;;34.60;96.10;;;;;;4970572;28;20209;-38
2021/06/01 14:37:40;;;;;;;6.32;4.28;;;35.30;95.90;;;;;;4975449;28;20308;-38
2021/06/01 15:49:46;;;;;;;6.25;4.13;;;36.30;90.50;;;;;;4970812;28;20683;-38
2021/06/01 16:14:32;;;;;;;4.28;3.55;;;36.50;87.70;;;;;;4973258;28;20200;-37
2021/06/01 16:22:45;;;;;;;4.13;3.63;;;33.20;89.40;;;;;;4967993;28;20195;-40
2021/06/01 16:33:34;;;;;;;4.50;4.10;;;34.00;88.70;;;;;;4963755;28;20194;-40
2021/06/01 16:41:45;;;;;;;6.55;4.35;;;34.40;89.30;;;;;;4961735;28;20191;-38
2021/06/01 16:44:18;;;;;;;3.78;3.35;;;33.50;89.50;;;;;;4966288;28;20260;-37
2021/06/01 17:03:40;;;;;;;6.43;5.40;;;35.10;89.40;;;;;;4954647;28;20203;-38
2021/06/01 17:06:15;;;;;;;5.45;5.05;;;34.50;90.20;;;;;;4958959;28;20573;-38
2021/06/01 17:09:06;;;;;;;4.13;3.72;;;33.90;90.30;;;;;;4968250;28;20252;-38
2021/06/01 17:11:38;;;;;;;3.20;3.00;;;33.60;89.70;;;;;;4970762;28;20205;-38
2021/06/01 17:14:05;;;;;;;12.15;11.05;;;33.00;90.70;;;;;;4961539;28;20194;-38
2021/06/01 17:16:39;;;;;;;10.98;9.95;;;32.30;91.10;;;;;;4970636;28;20233;-38
2021/06/01 17:35:46;;;;;;;5.05;3.95;;;30.70;92.40;;;;;;4965872;28;20230;-38
2021/06/01 17:38:14;;;;;;;6.32;4.15;;;31.00;92.20;;;;;;4958054;28;20934;-38
2021/06/01 17:40:41;;;;;;;4.15;3.63;;;31.10;91.90;;;;;;4957015;28;20206;-40
2021/06/01 17:43:10;;;;;;;3.63;3.33;;;30.90;92.80;;;;;;4965214;28;20198;-38
2021/06/01 17:45:41;;;;;;;7.25;4.28;;;30.80;92.70;;;;;;4947042;28;20214;-38
2021/06/01 17:48:13;;;;;;;5.32;3.58;;;30.90;93.00;;;;;;4969633;28;20297;-38
2021/06/01 17:50:39;;;;;;;3.72;3.42;;;30.80;93.10;;;;;;4968066;28;20214;-38
2021/06/01 17:53:08;;;;;;;3.78;3.35;;;30.50;93.10;;;;;;4955874;28;20195;-39
2021/06/01 17:55:36;;;;;;;5.13;3.70;;;30.30;92.80;;;;;;4962411;28;20225;-38
2021/06/01 17:58:03;;;;;;;4.40;4.00;;;30.30;93.10;;;;;;4957259;28;20198;-39
2021/06/01 18:00:30;;;;;;;4.70;3.33;;;30.10;93.60;;;;;;4955328;28;20609;-39
2021/06/01 18:02:56;;;;;;;12.88;11.10;;;29.60;93.40;;;;;;4952225;28;20751;-37
2021/06/01 18:05:29;;;;;;;8.77;7.93;;;29.10;93.90;;;;;;4959360;28;20525;-38